createdAt,value
2022-08-24T00:00:38.214Z,96969.03
2022-08-24T00:03:05.638Z,96966.47
2022-08-24T00:05:32.909Z,96971.75
2022-08-24T00:07:59.931Z,96970.88
2022-08-24T00:10:27.242Z,96977.47
2022-08-24T00:12:54.230Z,96978.25
2022-08-24T00:15:21.713Z,96975.34
2022-08-24T00:17:48.755Z,96965.56
2022-08-24T00:20:15.933Z,96958.56
2022-08-24T00:22:43.653Z,96963.94
2022-08-24T00:25:11.976Z,96970.94
2022-08-24T00:27:41.338Z,96978.28
2022-08-24T00:30:12.011Z,96987.09
2022-08-24T00:32:39.321Z,96984.44
2022-08-24T00:35:07.647Z,96985.25
2022-08-24T00:37:36.001Z,96984.44
2022-08-24T00:40:06.823Z,96979.44
2022-08-24T00:42:34.014Z,96986.06
2022-08-24T00:45:01.103Z,96990.31
2022-08-24T00:47:33.635Z,96991.72
2022-08-24T00:50:06.011Z,97000.09
2022-08-24T00:52:39.341Z,96995.78
2022-08-24T00:55:17.738Z,96990.84
2022-08-24T00:57:48.919Z,96994.91
2022-08-24T01:00:23.608Z,97010.53
2022-08-24T01:02:55.075Z,97020.47
2022-08-24T01:05:22.416Z,97029.56
2022-08-24T01:07:51.051Z,97039.34
2022-08-24T01:10:25.452Z,97058.13
2022-08-24T01:13:00.443Z,97074.53
2022-08-24T01:15:30.432Z,97081.56
2022-08-24T01:18:17.404Z,97088.16
2022-08-24T01:20:49.512Z,97081.72
2022-08-24T01:23:38.289Z,97088.84
2022-08-24T01:26:09.614Z,97093.38
2022-08-24T01:28:41.123Z,97097.81
2022-08-24T01:31:08.738Z,97101.34
2022-08-24T01:33:36.160Z,97092.16
2022-08-24T01:36:14.097Z,97092.16
2022-08-24T01:38:41.752Z,97093.81
2022-08-24T01:41:08.845Z,97105.72
2022-08-24T01:43:39.693Z,97109.34
2022-08-24T01:46:07.393Z,97114.69
2022-08-24T01:48:34.261Z,97108.59
2022-08-24T01:51:01.505Z,97110.69
2022-08-24T01:53:28.864Z,97101.28
2022-08-24T01:55:56.137Z,97109.09
2022-08-24T01:58:23.143Z,97111.50
2022-08-24T02:00:50.560Z,97107.81
2022-08-24T02:03:17.796Z,97111.56
2022-08-24T02:05:44.965Z,97107.88
2022-08-24T02:08:12.067Z,97106.03
2022-08-24T02:10:41.974Z,97100.06
2022-08-24T02:13:16.160Z,97104.00
2022-08-24T02:15:43.210Z,97099.31
2022-08-24T02:18:15.220Z,97107.94
2022-08-24T02:20:43.556Z,97111.25
2022-08-24T02:23:10.460Z,97109.19
2022-08-24T02:25:37.918Z,97107.31
2022-08-24T02:28:05.160Z,97104.81
2022-08-24T02:30:32.548Z,97109.53
2022-08-24T02:32:59.721Z,97109.00
2022-08-24T02:35:28.745Z,97110.09
2022-08-24T02:37:56.408Z,97115.53
2022-08-24T02:40:24.734Z,97121.47
2022-08-24T02:42:52.270Z,97114.81
2022-08-24T02:45:19.816Z,97111.06
2022-08-24T02:47:47.396Z,97113.78
2022-08-24T02:50:17.102Z,97108.06
2022-08-24T02:52:44.377Z,97102.47
2022-08-24T02:55:20.007Z,97107.81
2022-08-24T02:57:49.783Z,97104.00
2022-08-24T03:00:20.245Z,97098.72
2022-08-24T03:02:47.348Z,97115.69
2022-08-24T03:05:15.797Z,97109.09
2022-08-24T03:07:43.601Z,97113.19
2022-08-24T03:10:11.090Z,97103.81
2022-08-24T03:12:38.935Z,97108.91
2022-08-24T03:15:08.248Z,97109.97
2022-08-24T03:17:35.306Z,97101.34
2022-08-24T03:20:07.701Z,97099.31
2022-08-24T03:22:35.085Z,97097.47
2022-08-24T03:25:02.430Z,97098.09
2022-08-24T03:27:29.484Z,97089.50
2022-08-24T03:29:57.131Z,97089.59
2022-08-24T03:32:25.098Z,97096.78
2022-08-24T03:34:52.673Z,97089.13
2022-08-24T03:37:20.302Z,97081.28
2022-08-24T03:39:48.380Z,97092.59
2022-08-24T03:42:15.654Z,97084.59
2022-08-24T03:44:43.056Z,97094.84
2022-08-24T03:47:10.818Z,97104.69
2022-08-24T03:49:38.535Z,97098.53
2022-08-24T03:52:07.123Z,97094.38
2022-08-24T03:54:35.174Z,97088.25
2022-08-24T03:57:02.179Z,97095.25
2022-08-24T03:59:29.360Z,97096.13
2022-08-24T04:01:57.690Z,97090.59
2022-08-24T04:04:25.454Z,97089.91
2022-08-24T04:06:52.259Z,97086.22
2022-08-24T04:09:20.155Z,97083.56
2022-08-24T04:11:47.204Z,97087.88
2022-08-24T04:14:27.800Z,97088.78
2022-08-24T04:16:57.611Z,97087.09
2022-08-24T04:19:31.448Z,97092.06
2022-08-24T04:22:02.847Z,97083.44
2022-08-24T04:24:37.998Z,97094.09
2022-08-24T04:27:44.368Z,97089.94
2022-08-24T04:30:14.151Z,97096.13
2022-08-24T04:32:41.793Z,97096.50
2022-08-24T04:35:09.455Z,97097.94
2022-08-24T04:37:36.265Z,97093.72
2022-08-24T04:40:04.936Z,97102.38
2022-08-24T04:42:32.751Z,97106.47
2022-08-24T04:45:00.535Z,97098.91
2022-08-24T04:47:27.613Z,97101.41
2022-08-24T04:49:55.021Z,97096.94
2022-08-24T04:52:22.320Z,97094.53
2022-08-24T04:54:49.327Z,97100.56
2022-08-24T04:57:18.317Z,97100.78
2022-08-24T04:59:46.423Z,97105.31
2022-08-24T05:02:13.499Z,97112.09
2022-08-24T05:04:40.804Z,97107.59
2022-08-24T05:07:07.955Z,97104.31
2022-08-24T05:09:35.111Z,97106.38
2022-08-24T05:12:10.483Z,97112.59
2022-08-24T05:14:37.502Z,97105.19
2022-08-24T05:17:04.953Z,97114.22
2022-08-24T05:19:36.427Z,97114.69
2022-08-24T05:22:04.027Z,97109.69
2022-08-24T05:24:31.123Z,97117.09
2022-08-24T05:26:58.757Z,97115.84
2022-08-24T05:29:25.570Z,97107.47
2022-08-24T05:31:52.764Z,97105.19
2022-08-24T05:34:20.081Z,97109.34
2022-08-24T05:36:48.805Z,97113.47
2022-08-24T05:39:15.964Z,97117.53
2022-08-24T05:41:45.073Z,97110.53
2022-08-24T05:44:14.229Z,97115.47
2022-08-24T05:46:42.043Z,97114.44
2022-08-24T05:49:09.863Z,97122.09
2022-08-24T05:51:37.507Z,97121.50
2022-08-24T05:54:08.904Z,97112.69
2022-08-24T05:56:36.422Z,97117.06
2022-08-24T05:59:03.507Z,97113.38
2022-08-24T06:01:31.844Z,97108.88
2022-08-24T06:03:59.824Z,97108.69
2022-08-24T06:06:27.500Z,97115.06
2022-08-24T06:08:56.281Z,97116.31
2022-08-24T06:11:30.199Z,97115.28
2022-08-24T06:14:07.724Z,97108.28
2022-08-24T06:16:40.373Z,97112.38
2022-08-24T06:19:18.593Z,97117.16
2022-08-24T06:21:47.662Z,97118.78
2022-08-24T06:24:18.265Z,97113.47
2022-08-24T06:27:06.867Z,97108.13
2022-08-24T06:29:34.991Z,97119.25
2022-08-24T06:32:01.958Z,97126.44
2022-08-24T06:34:29.404Z,97127.84
2022-08-24T06:36:56.348Z,97130.50
2022-08-24T06:39:23.996Z,97132.75
2022-08-24T06:41:52.775Z,97123.09
2022-08-24T06:44:19.767Z,97133.38
2022-08-24T06:46:47.121Z,97131.16
2022-08-24T06:49:14.786Z,97126.44
2022-08-24T06:51:41.689Z,97130.78
2022-08-24T06:54:08.876Z,97140.44
2022-08-24T06:56:37.594Z,97142.28
2022-08-24T06:59:05.523Z,97144.28
2022-08-24T07:01:32.701Z,97142.84
2022-08-24T07:04:00.026Z,97145.38
2022-08-24T07:06:27.419Z,97147.00
2022-08-24T07:08:56.660Z,97144.13
2022-08-24T07:11:25.446Z,97144.16
2022-08-24T07:13:52.675Z,97148.28
2022-08-24T07:16:21.427Z,97144.19
2022-08-24T07:18:50.122Z,97152.41
2022-08-24T07:21:20.083Z,97153.03
2022-08-24T07:23:49.079Z,97156.13
2022-08-24T07:26:22.910Z,97168.44
2022-08-24T07:29:05.660Z,97160.25
2022-08-24T07:31:35.494Z,97157.16
2022-08-24T07:34:04.615Z,97162.69
2022-08-24T07:36:31.805Z,97168.06
2022-08-24T07:38:59.079Z,97163.34
2022-08-24T07:44:16.052Z,97176.94
2022-08-24T07:46:43.901Z,97168.91
2022-08-24T07:49:31.611Z,97173.59
2022-08-24T07:51:59.877Z,97164.19
2022-08-24T07:54:29.013Z,97175.31
2022-08-24T07:56:56.552Z,97163.97
2022-08-24T07:59:23.838Z,97172.84
2022-08-24T08:01:51.625Z,97162.34
2022-08-24T08:04:22.138Z,97171.00
2022-08-24T08:06:49.591Z,97175.94
2022-08-24T08:09:16.781Z,97173.66
2022-08-24T08:11:44.424Z,97176.75
2022-08-24T08:14:11.409Z,97171.59
2022-08-24T08:16:39.604Z,97185.81
2022-08-24T08:19:10.419Z,97184.56
2022-08-24T08:22:04.849Z,97187.47
2022-08-24T08:24:31.987Z,97188.88
2022-08-24T08:26:59.688Z,97181.69
2022-08-24T08:29:27.748Z,97186.22
2022-08-24T08:31:54.963Z,97186.00
2022-08-24T08:34:21.969Z,97187.69
2022-08-24T08:36:49.315Z,97181.28
2022-08-24T08:39:18.748Z,97174.72
2022-08-24T08:42:15.341Z,97182.94
2022-08-24T08:44:52.727Z,97172.22
2022-08-24T08:47:38.217Z,97171.00
2022-08-24T08:50:15.596Z,97174.28
2022-08-24T08:53:24.544Z,97175.53
2022-08-24T08:56:17.367Z,97184.38
2022-08-24T08:58:57.058Z,97185.59
2022-08-24T09:01:47.068Z,97182.13
2022-08-24T09:04:36.399Z,97182.31
2022-08-24T09:07:18.978Z,97191.78
2022-08-24T09:10:36.362Z,97185.00
2022-08-24T09:13:17.679Z,97186.84
2022-08-24T09:16:25.101Z,97179.66
2022-08-24T09:19:17.705Z,97175.53
2022-08-24T09:22:03.609Z,97187.47
2022-08-24T09:24:56.097Z,97183.97
2022-08-24T09:27:43.262Z,97179.63
2022-08-24T09:30:21.714Z,97176.53
2022-08-24T09:32:57.442Z,97173.63
2022-08-24T09:35:43.773Z,97167.69
2022-08-24T09:38:38.628Z,97173.03
2022-08-24T09:41:43.221Z,97165.22
2022-08-24T09:44:28.148Z,97163.34
2022-08-24T09:47:23.042Z,97173.19
2022-08-24T09:50:22.839Z,97162.69
2022-08-24T09:52:58.805Z,97162.88
2022-08-24T09:55:50.791Z,97160.81
2022-08-24T09:58:29.831Z,97157.31
2022-08-24T10:01:22.657Z,97151.31
2022-08-24T10:04:32.308Z,97143.69
2022-08-24T10:07:27.905Z,97152.34
2022-08-24T10:10:13.443Z,97144.91
2022-08-24T10:13:14.542Z,97137.91
2022-08-24T10:16:03.735Z,97130.69
2022-08-24T10:18:46.120Z,97141.16
2022-08-24T10:21:25.043Z,97133.72
2022-08-24T10:24:39.631Z,97138.50
2022-08-24T10:27:38.838Z,97129.25
2022-08-24T10:30:27.827Z,97118.75
2022-08-24T10:33:39.898Z,97113.97
2022-08-24T10:36:16.233Z,97126.56
2022-08-24T10:39:19.316Z,97130.69
2022-08-24T10:42:10.614Z,97124.09
2022-08-24T10:45:19.244Z,97117.28
2022-08-24T10:48:15.568Z,97125.50
2022-08-24T10:50:42.532Z,97125.88
2022-08-24T10:53:20.539Z,97106.44
2022-08-24T10:55:58.063Z,97108.50
2022-08-24T10:59:04.081Z,97102.28
2022-08-24T11:01:37.481Z,97106.00
2022-08-24T11:04:09.908Z,97109.22
2022-08-24T11:06:41.208Z,97102.59
2022-08-24T11:09:18.806Z,97102.47
2022-08-24T11:11:49.963Z,97101.31
2022-08-24T11:14:17.113Z,97102.81
2022-08-24T11:16:47.461Z,97101.63
2022-08-24T11:19:31.846Z,97105.66
2022-08-24T11:22:06.317Z,97109.38
2022-08-24T11:24:48.498Z,97110.56
2022-08-24T11:27:30.691Z,97117.91
2022-08-24T11:30:01.658Z,97107.91
2022-08-24T11:32:38.420Z,97109.03
2022-08-24T11:35:23.921Z,97112.53
2022-08-24T11:37:55.288Z,97117.16
2022-08-24T11:40:27.703Z,97118.53
2022-08-24T11:43:11.884Z,97111.31
2022-08-24T11:46:09.491Z,97101.13
2022-08-24T11:48:55.280Z,97094.34
2022-08-24T11:51:54.160Z,97090.16
2022-08-24T11:54:38.954Z,97091.81
2022-08-24T11:57:15.336Z,97094.31
2022-08-24T12:00:01.048Z,97101.56
2022-08-24T12:03:04.055Z,97103.66
2022-08-24T12:05:58.843Z,97100.31
2022-08-24T12:08:39.553Z,97092.94
2022-08-24T12:11:36.930Z,97089.56
2022-08-24T12:14:36.652Z,97090.50
2022-08-24T12:17:31.196Z,97093.56
2022-08-24T12:20:32.111Z,97089.94
2022-08-24T12:23:17.306Z,97083.78
2022-08-24T12:26:04.946Z,97082.84
2022-08-24T12:28:39.378Z,97097.75
2022-08-24T12:31:38.971Z,97088.22
2022-08-24T12:34:39.735Z,97086.72
2022-08-24T12:37:36.936Z,97092.84
2022-08-24T12:40:08.945Z,97100.38
2022-08-24T12:43:04.926Z,97105.41
2022-08-24T12:45:32.530Z,97121.13
2022-08-24T12:48:11.805Z,97119.50
2022-08-24T12:50:52.895Z,97127.09
2022-08-24T12:54:07.474Z,97135.38
2022-08-24T12:57:11.184Z,97126.09
2022-08-24T12:59:48.762Z,97126.09
2022-08-24T13:02:17.383Z,97113.66
2022-08-24T13:04:58.794Z,97109.84
2022-08-24T13:07:28.841Z,97099.50
2022-08-24T13:09:55.915Z,97098.84
2022-08-24T13:12:45.203Z,97103.16
2022-08-24T13:15:28.275Z,97092.13
2022-08-24T13:18:21.534Z,97087.66
2022-08-24T13:20:49.460Z,97085.22
2022-08-24T13:23:22.548Z,97073.25
2022-08-24T13:25:54.825Z,97076.56
2022-08-24T13:28:24.557Z,97062.94
2022-08-24T13:31:35.034Z,97053.59
2022-08-24T13:34:09.317Z,97046.69
2022-08-24T13:36:42.440Z,97041.59
2022-08-24T13:39:22.804Z,97049.44
2022-08-24T13:42:05.316Z,97046.06
2022-08-24T13:44:50.794Z,97031.09
2022-08-24T13:47:42.934Z,97021.75
2022-08-24T13:50:27.102Z,97028.91
2022-08-24T13:53:08.904Z,97020.97
2022-08-24T13:56:11.696Z,97009.31
2022-08-24T13:58:44.579Z,97011.50
2022-08-24T14:01:25.408Z,97004.06
2022-08-24T14:04:37.740Z,96995.50
2022-08-24T14:07:15.757Z,97005.56
2022-08-24T14:10:34.528Z,96998.31
2022-08-24T14:13:36.569Z,97001.16
2022-08-24T14:17:00.029Z,97002.09
2022-08-24T14:20:07.833Z,97006.38
2022-08-24T14:23:16.614Z,97002.75
2022-08-24T14:25:44.981Z,96992.16
2022-08-24T14:28:37.041Z,96996.47
2022-08-24T14:31:29.838Z,97003.63
2022-08-24T14:34:25.295Z,96996.22
2022-08-24T14:37:04.778Z,97003.31
2022-08-24T14:39:46.876Z,97000.44
2022-08-24T14:42:17.254Z,96996.13
2022-08-24T14:44:50.210Z,96988.28
2022-08-24T14:47:32.585Z,96991.72
2022-08-24T14:50:03.235Z,96994.03
2022-08-24T14:52:31.454Z,97000.56
2022-08-24T14:56:10.591Z,97003.38
2022-08-24T14:59:11.887Z,96992.59
2022-08-24T15:04:45.726Z,96996.84
2022-08-24T15:07:37.037Z,96991.13
2022-08-24T15:10:14.111Z,96991.31
2022-08-24T15:13:03.567Z,97004.22
2022-08-24T15:15:45.868Z,96996.19
2022-08-24T15:18:22.208Z,97000.78
2022-08-24T15:21:26.818Z,96995.88
2022-08-24T15:24:08.017Z,97006.22
2022-08-24T15:26:59.030Z,96999.78
2022-08-24T15:29:30.662Z,97012.03
2022-08-24T15:32:11.857Z,97008.09
2022-08-24T15:34:46.261Z,97004.72
2022-08-24T15:37:17.474Z,96992.16
2022-08-24T15:39:44.600Z,97000.75
2022-08-24T15:42:15.492Z,97006.38
2022-08-24T15:44:47.316Z,96997.94
2022-08-24T15:47:26.186Z,96993.69
2022-08-24T15:50:01.569Z,96993.91
2022-08-24T15:52:55.929Z,96991.59
2022-08-24T15:55:34.315Z,96998.91
2022-08-24T15:58:30.949Z,96998.09
2022-08-24T16:01:28.574Z,96992.28
2022-08-24T16:04:02.192Z,97001.06
2022-08-24T16:06:32.171Z,97004.09
2022-08-24T16:09:04.161Z,96997.53
2022-08-24T16:11:41.449Z,97004.09
2022-08-24T16:14:29.315Z,97007.97
2022-08-24T16:16:57.738Z,97003.44
2022-08-24T16:19:27.001Z,97003.78
2022-08-24T16:22:05.935Z,97004.72
2022-08-24T16:24:41.077Z,96996.38
2022-08-24T16:27:17.733Z,97005.25
2022-08-24T16:29:52.843Z,97019.84
2022-08-24T16:32:38.371Z,97026.28
2022-08-24T16:35:22.074Z,97038.03
2022-08-24T16:37:49.876Z,97038.25
2022-08-24T16:40:17.175Z,97042.91
2022-08-24T16:42:44.204Z,97044.25
2022-08-24T16:45:15.353Z,97054.41
2022-08-24T16:47:42.338Z,97053.84
2022-08-24T16:50:09.834Z,97056.84
2022-08-24T16:52:36.728Z,97060.22
2022-08-24T16:55:04.552Z,97054.56
2022-08-24T16:57:36.585Z,97056.44
2022-08-24T17:00:10.705Z,97060.81
2022-08-24T17:02:37.871Z,97063.00
2022-08-24T17:05:05.269Z,97061.19
2022-08-24T17:07:32.775Z,97065.81
2022-08-24T17:10:02.378Z,97070.44
2022-08-24T17:12:31.614Z,97070.72
2022-08-24T17:15:02.521Z,97067.88
2022-08-24T17:17:29.788Z,97067.69
2022-08-24T17:19:56.862Z,97072.47
2022-08-24T17:22:24.951Z,97076.19
2022-08-24T17:24:52.253Z,97079.59
2022-08-24T17:27:22.996Z,97081.72
2022-08-24T17:29:50.445Z,97083.97
2022-08-24T17:32:17.471Z,97080.72
2022-08-24T17:34:44.771Z,97088.47
2022-08-24T17:37:12.335Z,97081.13
2022-08-24T17:39:39.287Z,97085.25
2022-08-24T17:42:22.316Z,97079.56
2022-08-24T17:44:56.973Z,97074.66
2022-08-24T17:47:24.283Z,97080.47
2022-08-24T17:49:51.351Z,97076.56
2022-08-24T17:52:18.434Z,97089.38
2022-08-24T17:54:45.563Z,97092.91
2022-08-24T17:57:13.799Z,97099.13
2022-08-24T17:59:41.279Z,97104.13
2022-08-24T18:02:15.231Z,97098.81
2022-08-24T18:04:44.446Z,97116.16
2022-08-24T18:07:25.671Z,97112.25
2022-08-24T18:10:05.509Z,97110.44
2022-08-24T18:12:32.611Z,97112.88
2022-08-24T18:15:00.282Z,97117.44
2022-08-24T18:17:30.868Z,97120.94
2022-08-24T18:19:58.702Z,97129.16
2022-08-24T18:22:25.728Z,97131.44
2022-08-24T18:24:52.794Z,97134.13
2022-08-24T18:27:24.615Z,97137.22
2022-08-24T18:29:54.980Z,97129.00
2022-08-24T18:32:28.573Z,97152.84
2022-08-24T18:34:58.511Z,97145.06
2022-08-24T18:37:25.737Z,97159.06
2022-08-24T18:39:53.006Z,97157.00
2022-08-24T18:42:21.410Z,97160.69
2022-08-24T18:44:48.843Z,97158.03
2022-08-24T18:47:16.329Z,97151.66
2022-08-24T18:49:43.684Z,97148.34
2022-08-24T18:52:15.304Z,97150.03
2022-08-24T18:54:45.001Z,97153.69
2022-08-24T18:57:12.009Z,97153.28
2022-08-24T18:59:40.871Z,97149.81
2022-08-24T19:02:33.736Z,97140.13
2022-08-24T19:05:14.926Z,97141.38
2022-08-24T19:07:48.730Z,97131.47
2022-08-24T19:10:24.139Z,97129.03
2022-08-24T19:13:04.316Z,97136.03
2022-08-24T19:15:39.549Z,97136.84
2022-08-24T19:18:08.527Z,97134.16
2022-08-24T19:20:35.845Z,97129.63
2022-08-24T19:23:10.958Z,97127.38
2022-08-24T19:25:40.220Z,97129.00
2022-08-24T19:28:07.748Z,97119.34
2022-08-24T19:30:35.707Z,97121.59
2022-08-24T19:33:03.530Z,97129.00
2022-08-24T19:35:35.152Z,97125.69
2022-08-24T19:38:03.384Z,97129.81
2022-08-24T19:40:30.699Z,97124.03
2022-08-24T19:42:58.067Z,97127.31
2022-08-24T19:45:44.972Z,97125.88
2022-08-24T19:48:13.728Z,97124.81
2022-08-24T19:50:41.416Z,97121.97
2022-08-24T19:53:10.538Z,97136.34
2022-08-24T19:55:37.697Z,97141.91
2022-08-24T19:58:32.633Z,97154.84
2022-08-24T20:01:08.637Z,97148.88
2022-08-24T20:03:35.730Z,97156.91
2022-08-24T20:06:03.136Z,97159.59
2022-08-24T20:08:30.442Z,97146.63
2022-08-24T20:11:00.615Z,97139.25
2022-08-24T20:13:28.310Z,97146.06
2022-08-24T20:15:56.332Z,97142.13
2022-08-24T20:18:30.727Z,97144.19
2022-08-24T20:20:58.724Z,97148.72
2022-08-24T20:23:26.151Z,97145.81
2022-08-24T20:25:53.860Z,97149.13
2022-08-24T20:28:29.675Z,97151.41
2022-08-24T20:30:57.691Z,97145.41
2022-08-24T20:33:25.140Z,97153.84
2022-08-24T20:35:52.327Z,97154.66
2022-08-24T20:38:21.908Z,97148.09
2022-08-24T20:40:50.580Z,97152.59
2022-08-24T20:43:18.363Z,97162.69
2022-08-24T20:45:45.716Z,97157.16
2022-08-24T20:48:14.373Z,97159.59
2022-08-24T20:50:43.668Z,97154.69
2022-08-24T20:53:12.171Z,97154.47
2022-08-24T20:55:40.936Z,97153.25
2022-08-24T20:58:08.649Z,97160.44
2022-08-24T21:00:36.438Z,97156.53
2022-08-24T21:03:04.262Z,97155.91
2022-08-24T21:05:31.536Z,97154.50
2022-08-24T21:07:59.161Z,97147.53
2022-08-24T21:10:27.739Z,97146.66
2022-08-24T21:12:55.410Z,97145.03
2022-08-24T21:15:23.616Z,97138.03
2022-08-24T21:17:50.929Z,97132.25
2022-08-24T21:20:19.489Z,97128.13
2022-08-24T21:22:46.648Z,97134.31
2022-08-24T21:25:15.354Z,97122.97
2022-08-24T21:27:44.326Z,97112.50
2022-08-24T21:30:17.757Z,97114.97
2022-08-24T21:33:17.506Z,97110.25
2022-08-24T21:35:46.972Z,97096.06
2022-08-24T21:38:14.228Z,97101.63
2022-08-24T21:40:42.570Z,97090.91
2022-08-24T21:43:14.753Z,97099.97
2022-08-24T21:45:45.175Z,97096.88
2022-08-24T21:48:13.335Z,97098.53
2022-08-24T21:50:40.515Z,97100.56
2022-08-24T21:53:07.995Z,97107.97
2022-08-24T21:55:35.881Z,97105.72
2022-08-24T21:58:03.083Z,97100.97
2022-08-24T22:00:30.296Z,97097.47
2022-08-24T22:02:57.601Z,97103.25
2022-08-24T22:05:24.633Z,97098.09
2022-08-24T22:07:52.067Z,97093.59
2022-08-24T22:10:19.126Z,97097.88
2022-08-24T22:12:46.287Z,97089.47
2022-08-24T22:15:16.272Z,97089.25
2022-08-24T22:17:46.263Z,97084.91
2022-08-24T22:20:23.368Z,97071.34
2022-08-24T22:22:51.070Z,97077.31
2022-08-24T22:25:18.605Z,97073.00
2022-08-24T22:27:47.184Z,97082.03
2022-08-24T22:30:17.242Z,97070.72
2022-08-24T22:32:45.759Z,97065.16
2022-08-24T22:35:13.288Z,97073.59
2022-08-24T22:37:40.632Z,97066.41
2022-08-24T22:40:12.392Z,97055.72
2022-08-24T22:42:40.527Z,97047.88
2022-08-24T22:45:08.740Z,97045.81
2022-08-24T22:47:38.190Z,97043.38
2022-08-24T22:50:06.674Z,97045.03
2022-08-24T22:52:34.507Z,97038.66
2022-08-24T22:55:01.822Z,97050.78
2022-08-24T22:57:30.339Z,97034.94
2022-08-24T22:59:58.166Z,97030.63
2022-08-24T23:02:25.523Z,97029.81
2022-08-24T23:04:53.202Z,97026.34
2022-08-24T23:07:20.650Z,97021.59
2022-08-24T23:09:48.544Z,97026.94
2022-08-24T23:12:19.106Z,97017.88
2022-08-24T23:14:46.289Z,97015.84
2022-08-24T23:17:13.421Z,97004.75
2022-08-24T23:19:59.304Z,97008.03
2022-08-24T23:22:28.891Z,97003.28
2022-08-24T23:24:55.940Z,97004.72
2022-08-24T23:27:23.255Z,96999.81
2022-08-24T23:29:50.670Z,97006.97
2022-08-24T23:32:19.152Z,97011.50
2022-08-24T23:34:48.453Z,97010.88
2022-08-24T23:37:18.872Z,97022.75
2022-08-24T23:39:46.271Z,97012.25
2022-08-24T23:42:13.478Z,97010.88
2022-08-24T23:44:40.830Z,97010.88
2022-08-24T23:47:08.312Z,96998.28
2022-08-24T23:49:35.664Z,96989.03
2022-08-24T23:52:03.549Z,96991.31
2022-08-24T23:54:30.571Z,96992.72
2022-08-24T23:56:57.914Z,96986.56
2022-08-24T23:59:29.607Z,96991.66
